Time;durP1;ratioP1;P1;durP2;ratioP2;P2;SDS_P1;SDS_P2;PMS_P1;PMS_P2;Temp;Humidity;BMP_temperature;BMP_pressure;BME280_temperature;BME280_humidity;BME280_pressure;Samples;Min_cycle;Max_cycle;Signal;HPM_P1;HPM_P2
2023/02/26 00:01:28;;;;;;;0.40;0.40;;;;;;;7.76;49.48;98736.56;4322090;32;33746;-84
2023/02/26 00:03:58;;;;;;;0.35;0.35;;;;;;;7.74;49.42;98733.19;4343656;32;32768;-84
2023/02/26 00:06:26;;;;;;;0.60;0.60;;;;;;;7.94;48.48;98733.03;4339285;32;33574;-85
2023/02/26 00:08:54;;;;;;;0.47;0.40;;;;;;;7.98;48.32;98725.00;4384371;32;34111;-84
2023/02/26 00:11:23;;;;;;;0.00;0.00;;;;;;;8.13;47.64;98725.06;4388281;32;33068;-84
2023/02/26 00:13:51;;;;;;;0.00;0.00;;;;;;;8.11;47.20;98726.06;4363983;32;33737;-84
2023/02/26 00:16:26;;;;;;;0.00;0.00;;;;;;;7.81;48.07;98708.28;4352994;32;32318;-84
2023/02/26 00:18:55;;;;;;;0.75;0.75;;;;;;;7.53;49.01;98718.44;4355662;32;33638;-84
2023/02/26 00:21:24;;;;;;;0.20;0.20;;;;;;;7.43;49.00;98744.31;4387398;32;33740;-85
2023/02/26 00:23:52;;;;;;;0.15;0.15;;;;;;;7.08;50.49;98744.19;4366491;32;33000;-84
2023/02/26 00:26:22;;;;;;;0.20;0.20;;;;;;;7.60;48.57;98725.12;4284038;33;32504;-84
2023/02/26 00:28:50;;;;;;;0.00;0.00;;;;;;;7.16;50.05;98710.56;4331064;32;32579;-84
2023/02/26 00:31:19;;;;;;;0.00;0.00;;;;;;;7.19;49.39;98691.19;4340156;32;32366;-84
2023/02/26 00:33:47;;;;;;;0.10;0.10;;;;;;;6.81;51.05;98683.34;4312565;32;33935;-85
2023/02/26 00:36:27;;;;;;;0.00;0.00;;;;;;;6.53;52.28;98694.22;4345808;32;33483;-84
2023/02/26 00:39:06;;;;;;;0.05;0.05;;;;;;;6.98;50.80;98702.69;4334708;32;33026;-84
2023/02/26 00:41:35;;;;;;;0.10;0.10;;;;;;;7.15;50.03;98703.59;4318775;33;32833;-84
2023/02/26 00:44:03;;;;;;;0.00;0.00;;;;;;;6.80;51.39;98705.25;4300891;33;34218;-84
2023/02/26 00:46:45;;;;;;;0.60;0.60;;;;;;;6.89;50.84;98707.47;4327970;32;33208;-85
2023/02/26 00:49:17;;;;;;;;;;;;;;;6.79;51.11;98706.19;4324865;32;32570;-85
2023/02/26 00:51:51;;;;;;;0.32;0.32;;;;;;;7.10;50.26;98700.34;4327981;32;33565;-84
2023/02/26 00:54:26;;;;;;;0.00;0.00;;;;;;;7.15;50.14;98700.13;4337885;32;34054;-84
2023/02/26 00:56:56;;;;;;;0.00;0.00;;;;;;;7.36;49.37;98707.00;4325763;32;33880;-84
2023/02/26 00:59:24;;;;;;;0.20;0.20;;;;;;;7.09;49.93;98713.56;4348632;32;33945;-83
2023/02/26 01:01:52;;;;;;;0.30;0.30;;;;;;;7.10;50.00;98718.72;4344031;32;33308;-83
2023/02/26 01:04:21;;;;;;;0.00;0.00;;;;;;;7.34;49.31;98714.09;4318170;33;34608;-83
2023/02/26 01:06:54;;;;;;;0.00;0.00;;;;;;;7.25;49.24;98717.16;4303057;33;33591;-83
2023/02/26 01:09:29;;;;;;;0.00;0.00;;;;;;;7.08;50.32;98714.47;4299809;33;33375;-83
2023/02/26 01:12:02;;;;;;;0.00;0.00;;;;;;;7.38;49.33;98710.38;4326251;32;31992;-83
2023/02/26 01:14:31;;;;;;;0.00;0.00;;;;;;;7.22;49.86;98717.31;4300940;33;32728;-83
2023/02/26 01:17:16;;;;;;;0.10;0.10;;;;;;;7.09;50.46;98735.41;4316560;33;33734;-83
2023/02/26 01:19:56;;;;;;;0.17;0.17;;;;;;;7.22;50.05;98745.34;4296927;33;33921;-83
2023/02/26 01:22:51;;;;;;;0.00;0.00;;;;;;;7.18;50.32;98749.88;4309125;33;33573;-83
2023/02/26 01:25:43;;;;;;;0.00;0.00;;;;;;;7.30;49.58;98740.56;4292928;33;35139;-83
2023/02/26 01:28:11;;;;;;;0.20;0.20;;;;;;;7.30;49.77;98728.28;4262295;33;33603;-83
2023/02/26 01:30:39;;;;;;;0.10;0.10;;;;;;;7.11;50.54;98724.81;4278854;33;32504;-83
2023/02/26 01:33:34;;;;;;;0.22;0.22;;;;;;;7.01;51.31;98720.91;4286002;33;32672;-83
2023/02/26 01:36:08;;;;;;;0.03;0.03;;;;;;;7.35;50.02;98712.31;4251062;33;34608;-83
2023/02/26 01:38:42;;;;;;;0.37;0.30;;;;;;;7.16;50.33;98707.06;4285670;33;32426;-83
2023/02/26 01:41:26;;;;;;;0.25;0.25;;;;;;;7.39;48.68;98692.84;4290922;32;33850;-83
2023/02/26 01:44:03;;;;;;;2.00;1.17;;;;;;;7.16;49.07;98699.19;4259180;33;33746;-83
2023/02/26 01:46:37;;;;;;;0.00;0.00;;;;;;;7.27;49.19;98686.44;4319863;32;33056;-83
2023/02/26 01:49:15;;;;;;;1.12;1.02;;;;;;;7.16;49.02;98693.94;4336248;32;35243;-83
2023/02/26 01:51:53;;;;;;;0.10;0.10;;;;;;;7.25;48.75;98704.00;4305859;32;34892;-84
2023/02/26 01:54:28;;;;;;;0.15;0.15;;;;;;;7.01;49.75;98708.66;4328620;32;32733;-84
2023/02/26 01:57:11;;;;;;;0.00;0.00;;;;;;;6.99;49.46;98713.13;4282698;33;33304;-83
2023/02/26 01:59:45;;;;;;;;;;;;;;;6.81;49.84;98746.31;4260025;33;32483;-84
2023/02/26 02:02:17;;;;;;;0.00;0.00;;;;;;;6.95;49.63;98755.34;4297051;33;32743;-84
2023/02/26 02:04:46;;;;;;;;;;;;;;;6.77;50.42;98747.38;4271502;33;33018;-84
2023/02/26 02:07:14;;;;;;;0.00;0.00;;;;;;;6.89;50.28;98765.19;4341388;32;33772;-84
2023/02/26 02:09:41;;;;;;;0.00;0.00;;;;;;;7.23;49.12;98755.75;4337489;32;33991;-84
2023/02/26 02:12:20;;;;;;;0.00;0.00;;;;;;;6.67;50.99;98744.31;4374774;32;31979;-84
2023/02/26 02:14:55;;;;;;;0.00;0.00;;;;;;;7.06;49.70;98735.53;4374137;32;33400;-84
2023/02/26 02:17:48;;;;;;;0.05;0.05;;;;;;;6.89;49.93;98717.97;4343862;32;34009;-84
2023/02/26 02:20:49;;;;;;;0.00;0.00;;;;;;;7.05;50.06;98719.87;4273236;33;32935;-83
2023/02/26 02:23:26;;;;;;;0.05;0.05;;;;;;;6.89;50.16;98728.44;4281232;33;34554;-84
2023/02/26 02:26:02;;;;;;;0.03;0.03;;;;;;;6.84;50.92;98745.34;4277560;33;33647;-84
2023/02/26 02:28:56;;;;;;;0.10;0.10;;;;;;;7.07;49.87;98741.63;4317932;32;33996;-84
2023/02/26 02:31:26;;;;;;;0.00;0.00;;;;;;;7.08;49.58;98738.97;4240982;33;34317;-84
2023/02/26 02:34:18;;;;;;;0.00;0.00;;;;;;;7.27;49.05;98753.84;4322454;32;30544;-84
2023/02/26 02:37:01;;;;;;;0.03;0.03;;;;;;;7.39;48.71;98755.88;4356245;32;33011;-83
2023/02/26 02:39:42;;;;;;;0.47;0.47;;;;;;;6.90;49.94;98769.50;4373376;32;33435;-84
2023/02/26 02:42:13;;;;;;;0.00;0.00;;;;;;;6.65;50.76;98761.03;4344974;32;33246;-84
2023/02/26 02:44:43;;;;;;;0.00;0.00;;;;;;;6.29;52.56;98766.97;4364472;32;34341;-83
2023/02/26 02:47:13;;;;;;;0.00;0.00;;;;;;;6.57;51.54;98760.53;4329834;32;32192;-83
2023/02/26 02:49:47;;;;;;;0.00;0.00;;;;;;;6.35;52.45;98769.31;4379249;32;33904;-83
2023/02/26 02:52:29;;;;;;;0.05;0.05;;;;;;;6.23;52.81;98779.47;4355331;32;34710;-83
2023/02/26 02:55:29;;;;;;;0.00;0.00;;;;;;;6.50;51.99;98793.16;4304863;33;33405;-82
2023/02/26 02:58:01;;;;;;;0.00;0.00;;;;;;;6.69;51.35;98786.19;4333166;32;32569;-82
2023/02/26 03:00:31;;;;;;;0.00;0.00;;;;;;;6.12;53.00;98790.41;4363100;32;32768;-82
2023/02/26 03:03:16;;;;;;;0.00;0.00;;;;;;;6.09;53.19;98778.28;4381005;32;33569;-82
2023/02/26 03:05:44;;;;;;;0.00;0.00;;;;;;;6.09;53.25;98803.66;4314597;32;34684;-82
2023/02/26 03:08:15;;;;;;;0.00;0.00;;;;;;;6.25;52.84;98804.69;4327644;33;32369;-82
2023/02/26 03:10:46;;;;;;;0.00;0.00;;;;;;;6.28;52.66;98801.97;4335378;32;35571;-82
2023/02/26 03:13:16;;;;;;;0.52;0.52;;;;;;;6.06;53.48;98795.91;4378519;32;34402;-84
2023/02/26 03:15:49;;;;;;;1.12;0.80;;;;;;;6.36;52.40;98786.75;4318107;32;32296;-84
2023/02/26 03:18:40;;;;;;;0.08;0.08;;;;;;;6.58;51.77;98773.56;4390244;32;32192;-84
2023/02/26 03:21:16;;;;;;;0.00;0.00;;;;;;;6.45;52.15;98789.87;4336810;32;33513;-84
2023/02/26 03:24:04;;;;;;;0.00;0.00;;;;;;;6.32;52.64;98800.91;4342398;32;33993;-84
2023/02/26 03:26:39;;;;;;;0.03;0.03;;;;;;;6.56;51.73;98792.91;4289992;33;33566;-83
2023/02/26 03:29:17;;;;;;;0.00;0.00;;;;;;;6.75;50.98;98808.72;4304504;33;32409;-84
2023/02/26 03:31:55;;;;;;;0.00;0.00;;;;;;;6.26;52.49;98813.41;4314877;32;33248;-85
2023/02/26 03:34:31;;;;;;;0.00;0.00;;;;;;;6.31;52.22;98809.69;4318767;33;33489;-83
2023/02/26 03:37:23;;;;;;;0.90;0.20;;;;;;;6.32;52.47;98816.66;4306557;33;33047;-84
2023/02/26 03:39:55;;;;;;;0.52;0.52;;;;;;;6.15;53.02;98819.97;4312332;33;31941;-84
2023/02/26 03:42:25;;;;;;;;;;;;;;;6.07;53.08;98810.69;4316396;32;32900;-84
2023/02/26 03:44:57;;;;;;;0.00;0.00;;;;;;;5.87;54.20;98821.97;4334971;32;32993;-84
2023/02/26 03:47:25;;;;;;;0.00;0.00;;;;;;;5.87;53.90;98830.69;4375692;32;33573;-83
2023/02/26 03:49:58;;;;;;;0.20;0.20;;;;;;;6.02;53.48;98836.25;4325512;32;33543;-83
2023/02/26 03:52:29;;;;;;;0.47;0.30;;;;;;;6.19;52.68;98831.19;4316398;33;34407;-83
2023/02/26 03:55:05;;;;;;;0.32;0.32;;;;;;;6.24;52.58;98834.47;4314327;33;35229;-83
2023/02/26 03:57:34;;;;;;;0.10;0.10;;;;;;;6.51;51.83;98848.19;4324338;32;33743;-83
2023/02/26 04:00:06;;;;;;;0.47;0.47;;;;;;;6.49;51.62;98838.66;4356677;32;33151;-83
2023/02/26 04:02:46;;;;;;;0.35;0.35;;;;;;;6.22;52.59;98820.56;4373053;32;32897;-83
2023/02/26 04:05:20;;;;;;;0.00;0.00;;;;;;;6.26;52.42;98800.31;4290874;33;33865;-83
2023/02/26 04:07:48;;;;;;;2.45;0.80;;;;;;;6.29;52.52;98797.56;4342992;32;32999;-83
2023/02/26 04:10:21;;;;;;;0.10;0.10;;;;;;;6.14;53.02;98806.94;4314070;32;32297;-83
2023/02/26 04:12:49;;;;;;;0.00;0.00;;;;;;;6.22;52.50;98815.34;4333778;32;32534;-83
2023/02/26 04:15:17;;;;;;;0.10;0.10;;;;;;;6.63;51.36;98810.06;4387528;32;33091;-83
2023/02/26 04:17:44;;;;;;;0.00;0.00;;;;;;;6.18;52.71;98815.53;4392916;32;32105;-83
2023/02/26 04:20:12;;;;;;;1.37;1.05;;;;;;;6.16;53.26;98831.28;4367034;32;32997;-84
2023/02/26 04:22:40;;;;;;;0.10;0.10;;;;;;;6.29;52.41;98835.13;4319628;32;32727;-83
2023/02/26 04:25:07;;;;;;;0.40;0.40;;;;;;;6.28;52.62;98843.91;4335681;32;34252;-84
2023/02/26 04:27:35;;;;;;;0.00;0.00;;;;;;;5.97;53.75;98864.41;4325119;32;32831;-83
2023/02/26 04:30:04;;;;;;;0.25;0.10;;;;;;;6.19;52.35;98885.38;4320105;32;33385;-84
2023/02/26 04:32:31;;;;;;;0.43;0.43;;;;;;;6.01;52.70;98879.09;4384555;32;32176;-84
2023/02/26 04:35:00;;;;;;;0.00;0.00;;;;;;;5.84;53.14;98866.63;4400342;32;34355;-87
2023/02/26 04:37:28;;;;;;;0.00;0.00;;;;;;;5.74;54.13;98875.75;4395709;32;32470;-84
2023/02/26 04:39:55;;;;;;;0.00;0.00;;;;;;;5.99;52.89;98881.78;4354472;32;33317;-84
2023/02/26 04:42:23;;;;;;;0.00;0.00;;;;;;;5.98;53.20;98885.31;4319969;33;32493;-83
2023/02/26 04:44:51;;;;;;;1.02;0.55;;;;;;;5.93;53.15;98886.41;4364278;32;33155;-84
2023/02/26 04:47:18;;;;;;;0.52;0.52;;;;;;;5.67;53.91;98911.81;4403983;32;33124;-83
2023/02/26 04:49:46;;;;;;;0.30;0.30;;;;;;;5.67;53.64;98890.84;4376606;32;32287;-84
2023/02/26 04:52:14;;;;;;;0.10;0.10;;;;;;;5.43;54.52;98892.62;4403960;32;33839;-83
2023/02/26 04:54:42;;;;;;;0.40;0.40;;;;;;;5.62;54.02;98892.81;4376859;32;32608;-84
2023/02/26 04:57:09;;;;;;;0.00;0.00;;;;;;;5.61;54.31;98875.38;4374373;32;32852;-84
2023/02/26 04:59:37;;;;;;;0.00;0.00;;;;;;;5.72;53.86;98881.06;4404252;32;32647;-84
2023/02/26 05:02:05;;;;;;;0.00;0.00;;;;;;;5.44;54.52;98889.09;4385205;32;33039;-84
2023/02/26 05:04:36;;;;;;;0.00;0.00;;;;;;;5.33;54.53;98884.28;4383506;32;33994;-85
2023/02/26 05:07:04;;;;;;;0.05;0.05;;;;;;;5.15;55.46;98874.47;4406084;32;33175;-83
2023/02/26 05:09:32;;;;;;;0.05;0.05;;;;;;;5.37;54.85;98864.09;4395617;32;32142;-83
2023/02/26 05:11:59;;;;;;;0.45;0.45;;;;;;;5.28;55.08;98883.59;4385999;32;34636;-83
2023/02/26 05:14:27;;;;;;;0.10;0.10;;;;;;;5.15;55.35;98892.78;4398179;32;33509;-84
2023/02/26 05:16:56;;;;;;;0.00;0.00;;;;;;;5.70;53.96;98885.50;4361713;32;33151;-84
2023/02/26 05:19:24;;;;;;;0.00;0.00;;;;;;;5.53;54.22;98883.53;4376637;32;33418;-84
2023/02/26 05:21:52;;;;;;;0.00;0.00;;;;;;;5.17;55.89;98877.88;4368716;32;33275;-84
2023/02/26 05:24:22;;;;;;;0.20;0.20;;;;;;;5.32;54.91;98885.19;4384948;32;33705;-84
2023/02/26 05:26:50;;;;;;;0.03;0.03;;;;;;;5.57;54.59;98899.97;4371467;32;34005;-83
2023/02/26 05:29:18;;;;;;;0.30;0.30;;;;;;;5.22;56.11;98920.47;4345445;32;32333;-83
2023/02/26 05:31:45;;;;;;;0.00;0.00;;;;;;;5.31;55.79;98920.09;4344940;32;33243;-82
2023/02/26 05:34:14;;;;;;;0.05;0.05;;;;;;;5.27;55.31;98928.13;4378572;32;34258;-83
2023/02/26 05:36:42;;;;;;;1.05;1.00;;;;;;;5.07;55.82;98931.47;4402686;32;31931;-83
2023/02/26 05:39:09;;;;;;;0.75;0.75;;;;;;;5.48;54.75;98919.50;4344179;32;32946;-83
2023/02/26 05:41:36;;;;;;;0.20;0.20;;;;;;;5.50;54.79;98912.44;4399497;32;33067;-84
2023/02/26 05:44:04;;;;;;;0.80;0.70;;;;;;;5.57;54.73;98920.94;4378000;32;33344;-85
2023/02/26 05:46:32;;;;;;;0.00;0.00;;;;;;;5.29;55.68;98934.19;4345921;32;33080;-85
2023/02/26 05:49:00;;;;;;;0.10;0.10;;;;;;;5.29;55.17;98948.13;4360642;32;33346;-85
2023/02/26 05:51:28;;;;;;;0.00;0.00;;;;;;;5.45;55.36;98958.03;4383504;32;32662;-85
2023/02/26 05:53:55;;;;;;;0.40;0.40;;;;;;;5.16;56.08;98967.78;4319277;32;34041;-85
2023/02/26 05:56:23;;;;;;;0.08;0.08;;;;;;;5.50;54.85;98967.41;4312478;33;33557;-84
2023/02/26 05:58:51;;;;;;;0.00;0.00;;;;;;;5.53;54.88;98958.59;4339001;32;33591;-84
2023/02/26 06:01:18;;;;;;;0.10;0.10;;;;;;;5.19;56.15;98954.59;4362607;32;33465;-84
2023/02/26 06:03:46;;;;;;;0.08;0.08;;;;;;;5.49;54.96;98955.25;4343624;32;32958;-83
2023/02/26 06:06:17;;;;;;;0.00;0.00;;;;;;;5.34;55.50;98968.91;4314953;33;33233;-85
2023/02/26 06:08:45;;;;;;;0.10;0.10;;;;;;;5.49;54.90;98963.09;4314994;33;32419;-85
2023/02/26 06:11:13;;;;;;;0.00;0.00;;;;;;;5.37;55.96;98963.56;4324919;32;33039;-85
2023/02/26 06:13:41;;;;;;;0.13;0.13;;;;;;;5.47;55.13;98970.16;4324146;32;33008;-85
2023/02/26 06:16:08;;;;;;;0.00;0.00;;;;;;;5.42;55.51;98985.19;4324079;33;32988;-85
2023/02/26 06:18:36;;;;;;;0.20;0.20;;;;;;;5.56;55.23;98976.84;4344221;32;32633;-86
2023/02/26 06:21:04;;;;;;;1.55;1.45;;;;;;;5.48;55.04;98984.09;4352799;32;33478;-85
2023/02/26 06:23:31;;;;;;;0.37;0.37;;;;;;;5.18;55.68;98991.28;4344286;32;32863;-84
2023/02/26 06:25:59;;;;;;;0.00;0.00;;;;;;;5.64;54.70;99006.19;4312300;33;32794;-83
2023/02/26 06:28:27;;;;;;;0.17;0.17;;;;;;;5.35;56.21;99002.84;4327909;32;33194;-83
2023/02/26 06:30:54;;;;;;;0.30;0.30;;;;;;;5.64;54.75;98990.50;4339468;32;32254;-82
2023/02/26 06:33:23;;;;;;;0.37;0.37;;;;;;;5.60;54.72;99004.59;4338536;32;36279;-83
2023/02/26 06:35:50;;;;;;;0.00;0.00;;;;;;;5.50;55.00;98996.22;4355264;32;32378;-83
2023/02/26 06:38:18;;;;;;;0.57;0.57;;;;;;;5.53;55.40;98998.75;4350088;32;33763;-83
2023/02/26 06:40:46;;;;;;;0.00;0.00;;;;;;;5.57;55.10;98999.50;4330755;32;33998;-83
2023/02/26 06:43:14;;;;;;;0.10;0.10;;;;;;;5.73;54.77;99013.72;4321285;32;33500;-83
2023/02/26 06:45:41;;;;;;;0.98;0.98;;;;;;;5.57;54.84;99029.16;4329501;32;33683;-84
2023/02/26 06:48:09;;;;;;;0.00;0.00;;;;;;;5.75;54.68;99029.41;4324431;32;33679;-83
2023/02/26 06:50:36;;;;;;;0.00;0.00;;;;;;;5.53;55.17;99024.94;4296433;33;33343;-83
2023/02/26 06:53:04;;;;;;;0.03;0.03;;;;;;;5.11;56.90;99030.72;4303425;32;33196;-83
2023/02/26 06:55:32;;;;;;;0.00;0.00;;;;;;;5.30;56.17;99023.09;4289221;32;32990;-83
2023/02/26 06:57:59;;;;;;;0.00;0.00;;;;;;;5.44;56.08;99029.62;4358264;32;32469;-83
2023/02/26 07:00:27;;;;;;;0.00;0.00;;;;;;;5.33;56.19;99028.25;4330960;32;32791;-83
2023/02/26 07:02:55;;;;;;;0.00;0.00;;;;;;;5.35;55.91;99015.94;4301745;33;33228;-84
2023/02/26 07:05:23;;;;;;;0.00;0.00;;;;;;;5.20;56.93;99015.63;4330574;32;33330;-83
2023/02/26 07:07:50;;;;;;;0.00;0.00;;;;;;;5.83;55.03;99022.94;4317766;32;33195;-83
2023/02/26 07:10:20;;;;;;;0.00;0.00;;;;;;;5.67;55.81;99020.97;4346112;32;32780;-83
2023/02/26 07:12:47;;;;;;;1.12;1.00;;;;;;;5.74;55.44;99033.75;4360795;32;33761;-83
2023/02/26 07:15:15;;;;;;;0.17;0.17;;;;;;;5.61;56.00;99022.03;4345927;32;32846;-83
2023/02/26 07:17:43;;;;;;;0.30;0.30;;;;;;;5.64;56.09;99016.69;4340323;32;32854;-83
2023/02/26 07:20:12;;;;;;;3.92;2.03;;;;;;;5.36;56.96;99007.22;4354125;32;34165;-84
2023/02/26 07:22:40;;;;;;;0.25;0.25;;;;;;;5.68;55.97;99013.03;4342756;32;34593;-84
2023/02/26 07:25:08;;;;;;;0.13;0.13;;;;;;;5.61;56.19;99016.81;4337817;32;34172;-84
2023/02/26 07:27:36;;;;;;;0.00;0.00;;;;;;;5.97;55.32;99013.75;4337622;32;32755;-83
2023/02/26 07:30:05;;;;;;;0.20;0.20;;;;;;;5.97;55.13;99013.75;4365776;32;33355;-84
2023/02/26 07:32:32;;;;;;;0.50;0.50;;;;;;;5.57;56.88;99010.81;4329627;32;34477;-84
2023/02/26 07:35:00;;;;;;;0.00;0.00;;;;;;;5.79;55.90;98991.69;4329706;32;33701;-83
2023/02/26 07:37:28;;;;;;;0.00;0.00;;;;;;;5.36;57.44;99007.22;4348604;32;34080;-84
2023/02/26 07:40:09;;;;;;;0.05;0.05;;;;;;;5.82;56.18;99031.72;4330707;32;34171;-84
2023/02/26 07:42:37;;;;;;;0.43;0.43;;;;;;;6.06;56.15;99026.53;4313375;32;34191;-83
2023/02/26 07:45:06;;;;;;;0.40;0.40;;;;;;;6.21;55.16;99018.06;4297040;32;33596;-83
2023/02/26 07:47:33;;;;;;;0.05;0.05;;;;;;;6.27;54.76;99028.34;4262262;32;31327;-85
2023/02/26 07:50:01;;;;;;;0.32;0.32;;;;;;;6.10;55.75;99020.25;4303799;33;34633;-83
2023/02/26 07:52:29;;;;;;;0.00;0.00;;;;;;;6.34;54.59;99024.56;4271515;33;33233;-82
2023/02/26 07:54:56;;;;;;;2.05;1.17;;;;;;;6.40;54.50;99028.69;4275879;33;33177;-83
2023/02/26 07:57:24;;;;;;;0.00;0.00;;;;;;;6.49;54.30;99019.63;4283144;33;32920;-83
2023/02/26 07:59:50;;;;;;;0.05;0.05;;;;;;;6.16;55.57;99028.72;4304604;32;33071;-83
2023/02/26 08:02:35;;;;;;;0.00;0.00;;;;;;;6.44;54.90;99026.81;4476365;31;178720;-84
2023/02/26 08:05:03;;;;;;;0.20;0.20;;;;;;;6.44;54.90;99026.81;4446340;32;33026;-83
2023/02/26 08:07:31;;;;;;;0.30;0.30;;;;;;;6.39;54.64;99027.84;4417545;32;34341;-83
2023/02/26 08:09:57;;;;;;;0.60;0.60;;;;;;;6.22;55.34;99029.41;4388232;32;33596;-83
2023/02/26 08:12:25;;;;;;;0.00;0.00;;;;;;;6.75;53.31;99008.09;4410646;32;33749;-83
2023/02/26 08:14:52;;;;;;;0.17;0.15;;;;;;;6.50;53.90;99018.69;4416874;32;32881;-83
2023/02/26 08:17:20;;;;;;;0.10;0.10;;;;;;;6.47;54.33;99022.31;4381956;32;33154;-83
2023/02/26 08:19:48;;;;;;;0.00;0.00;;;;;;;6.42;54.43;99026.88;4370049;32;33278;-83
2023/02/26 08:22:15;;;;;;;0.98;0.80;;;;;;;6.56;54.51;99029.81;4371360;32;33407;-83
2023/02/26 08:24:43;;;;;;;0.10;0.10;;;;;;;6.50;54.59;99035.28;4366859;32;32118;-83
2023/02/26 08:27:11;;;;;;;0.55;0.22;;;;;;;6.70;53.10;99037.16;4387781;32;33605;-83
2023/02/26 08:29:40;;;;;;;0.00;0.00;;;;;;;6.77;53.41;99033.34;4369462;32;34040;-83
2023/02/26 08:32:06;;;;;;;0.20;0.20;;;;;;;6.75;53.61;99016.81;4357072;32;34455;-83
2023/02/26 08:34:34;;;;;;;2.20;0.88;;;;;;;6.68;53.69;99023.22;4348370;32;33371;-83
2023/02/26 08:37:01;;;;;;;0.00;0.00;;;;;;;6.58;53.59;99029.75;4379949;32;33622;-83
2023/02/26 08:39:32;;;;;;;0.52;0.22;;;;;;;6.69;53.26;99038.03;4342327;32;34420;-83
2023/02/26 08:41:58;;;;;;;1.65;1.20;;;;;;;6.75;53.40;99043.06;4296163;33;34229;-83
2023/02/26 08:44:27;;;;;;;3.10;2.85;;;;;;;6.88;52.23;99036.41;4295447;32;32903;-83
2023/02/26 08:47:08;;;;;;;0.50;0.50;;;;;;;6.60;54.05;99051.53;4299694;32;32743;-83
2023/02/26 08:49:36;;;;;;;0.05;0.05;;;;;;;6.80;53.03;99048.97;4276853;32;33444;-84
2023/02/26 08:52:19;;;;;;;0.10;0.10;;;;;;;6.54;53.76;99067.50;4300172;33;32418;-83
2023/02/26 08:55:01;;;;;;;0.82;0.82;;;;;;;6.70;53.76;99063.37;4299325;32;32600;-83
2023/02/26 08:57:34;;;;;;;0.30;0.30;;;;;;;7.05;52.51;99064.56;4245296;33;33334;-83
2023/02/26 09:00:17;;;;;;;0.22;0.22;;;;;;;6.90;53.15;99060.81;4478657;31;112276;-83
2023/02/26 09:02:45;;;;;;;0.00;0.00;;;;;;;6.89;52.76;99074.84;4452482;32;34385;-83
2023/02/26 09:05:14;;;;;;;0.00;0.00;;;;;;;7.04;52.51;99064.63;4461774;32;34005;-83
2023/02/26 09:07:41;;;;;;;0.00;0.00;;;;;;;7.16;52.25;99072.00;4432542;32;34717;-83
2023/02/26 09:10:11;;;;;;;1.00;0.52;;;;;;;7.30;51.81;99064.41;4412050;32;33953;-83
2023/02/26 09:12:38;;;;;;;0.20;0.20;;;;;;;7.31;52.08;99063.50;4414435;32;32997;-83
2023/02/26 09:15:07;;;;;;;0.17;0.17;;;;;;;7.46;51.55;99064.63;4422259;32;33749;-83
2023/02/26 09:17:36;;;;;;;0.32;0.32;;;;;;;6.60;53.36;99093.53;4432674;32;32972;-83
2023/02/26 09:20:04;;;;;;;6.47;5.65;;;;;;;7.47;50.46;99078.59;4416530;32;34003;-83
2023/02/26 09:22:35;;;;;;;12.02;7.03;;;;;;;7.45;50.18;99078.66;4410767;32;32592;-82
2023/02/26 09:25:03;;;;;;;1.55;1.45;;;;;;;6.95;52.06;99096.50;4392903;32;33097;-83
2023/02/26 09:27:32;;;;;;;0.20;0.20;;;;;;;6.93;52.17;99097.44;4368915;32;33476;-84
2023/02/26 09:30:00;;;;;;;0.25;0.25;;;;;;;7.53;50.57;99092.31;4364923;32;33859;-83
2023/02/26 09:32:26;;;;;;;0.00;0.00;;;;;;;7.56;50.70;99080.84;4363039;32;32848;-84
2023/02/26 09:34:54;;;;;;;0.57;0.57;;;;;;;7.59;49.86;99085.94;4380027;32;33346;-83
2023/02/26 09:37:21;;;;;;;0.05;0.05;;;;;;;7.65;50.19;99096.22;4374971;32;33785;-83
2023/02/26 09:39:48;;;;;;;0.30;0.30;;;;;;;7.54;50.36;99094.03;4375889;32;33699;-83
2023/02/26 09:42:25;;;;;;;0.10;0.10;;;;;;;7.61;50.00;99097.25;4376492;32;33451;-83
2023/02/26 09:44:57;;;;;;;0.40;0.40;;;;;;;7.45;50.72;99107.53;4390193;32;32724;-83
2023/02/26 09:47:38;;;;;;;0.40;0.40;;;;;;;8.09;48.42;99109.19;4384077;32;33537;-83
2023/02/26 09:50:18;;;;;;;0.50;0.30;;;;;;;7.88;49.68;99103.97;4388204;32;32731;-83
2023/02/26 09:52:50;;;;;;;0.00;0.00;;;;;;;8.09;48.73;99088.13;4360853;32;32874;-83
2023/02/26 09:55:52;;;;;;;0.40;0.30;;;;;;;8.17;48.36;99093.91;4326136;32;33394;-83
2023/02/26 09:58:39;;;;;;;0.05;0.05;;;;;;;8.30;47.62;99089.78;4354771;32;32995;-83
2023/02/26 10:01:21;;;;;;;0.30;0.30;;;;;;;8.67;46.69;99082.84;4355823;32;32930;-83
2023/02/26 10:04:17;;;;;;;0.00;0.00;;;;;;;8.71;46.46;99087.03;4382502;32;34071;-83
2023/02/26 10:07:03;;;;;;;0.00;0.00;;;;;;;8.46;45.28;99095.25;4392531;32;32955;-83
2023/02/26 10:10:07;;;;;;;0.10;0.10;;;;;;;8.44;45.11;99107.59;4369328;32;33846;-83
2023/02/26 10:12:36;;;;;;;0.00;0.00;;;;;;;8.40;45.18;99117.44;4353824;32;33469;-83
2023/02/26 10:15:13;;;;;;;0.00;0.00;;;;;;;8.38;45.25;99129.78;4374363;32;31794;-83
2023/02/26 10:18:05;;;;;;;3.60;0.43;;;;;;;8.34;44.52;99137.84;4363669;32;34602;-83
2023/02/26 10:20:52;;;;;;;0.00;0.00;;;;;;;8.35;44.85;99144.81;4367777;32;33393;-83
2023/02/26 10:23:47;;;;;;;0.00;0.00;;;;;;;8.36;45.86;99152.69;4370845;32;33637;-83
2023/02/26 10:26:19;;;;;;;0.22;0.22;;;;;;;8.40;44.99;99154.25;4383832;32;33603;-83
2023/02/26 10:29:17;;;;;;;0.03;0.03;;;;;;;8.53;44.87;99158.94;4410137;32;33427;-83
2023/02/26 10:31:48;;;;;;;0.00;0.00;;;;;;;8.52;44.55;99157.25;4336018;32;33922;-83
2023/02/26 10:34:18;;;;;;;0.15;0.15;;;;;;;8.52;43.59;99162.50;4350881;32;33146;-83
2023/02/26 10:36:54;;;;;;;0.00;0.00;;;;;;;8.49;43.67;99160.84;4357015;32;32746;-83
2023/02/26 10:39:34;;;;;;;0.47;0.32;;;;;;;8.39;44.62;99165.69;4338264;32;33086;-82
2023/02/26 10:42:08;;;;;;;0.37;0.37;;;;;;;8.29;44.69;99167.00;4381995;32;34010;-82
2023/02/26 10:44:48;;;;;;;0.10;0.10;;;;;;;8.52;44.64;99170.41;4367928;32;33715;-82
2023/02/26 10:47:25;;;;;;;0.35;0.30;;;;;;;8.48;44.15;99171.47;4349380;32;32847;-82
2023/02/26 10:50:00;;;;;;;2.30;0.93;;;;;;;8.66;44.33;99171.47;4363746;32;33075;-83
2023/02/26 10:52:31;;;;;;;0.00;0.00;;;;;;;8.51;44.00;99176.59;4358786;32;33776;-82
2023/02/26 10:55:06;;;;;;;0.10;0.10;;;;;;;8.82;44.46;99176.88;4345531;32;31808;-83
2023/02/26 10:57:39;;;;;;;0.00;0.00;;;;;;;8.75;43.74;99172.00;4315071;32;33196;-83
2023/02/26 11:00:15;;;;;;;0.00;0.00;;;;;;;8.98;44.16;99172.63;4325461;32;32789;-82
2023/02/26 11:02:46;;;;;;;0.65;0.65;;;;;;;9.13;41.72;99178.09;4345278;32;32935;-82
2023/02/26 11:05:19;;;;;;;0.00;0.00;;;;;;;8.85;42.73;99182.00;4377471;32;32824;-82
2023/02/26 11:07:51;;;;;;;0.62;0.62;;;;;;;8.53;44.02;99185.25;4387258;32;32019;-80
2023/02/26 11:10:23;;;;;;;0.00;0.00;;;;;;;8.68;43.56;99176.66;4349651;32;32442;-80
2023/02/26 11:12:52;;;;;;;0.00;0.00;;;;;;;8.96;43.01;99179.72;4363924;32;33160;-80
2023/02/26 11:15:22;;;;;;;0.00;0.00;;;;;;;8.52;44.16;99179.16;4367489;32;34043;-81
2023/02/26 11:17:53;;;;;;;0.10;0.10;;;;;;;8.65;43.55;99179.47;4384551;32;31532;-82
2023/02/26 11:20:37;;;;;;;0.10;0.10;;;;;;;8.86;41.79;99190.75;4366634;32;33231;-81
2023/02/26 11:23:09;;;;;;;0.00;0.00;;;;;;;9.00;42.47;99195.38;4333441;32;36924;-81
2023/02/26 11:25:37;;;;;;;6.85;1.00;;;;;;;9.19;40.91;99191.81;4362184;32;33507;-82
2023/02/26 11:28:09;;;;;;;0.03;0.03;;;;;;;8.86;41.69;99193.41;4373152;32;33317;-82
2023/02/26 11:30:37;;;;;;;0.00;0.00;;;;;;;8.88;41.29;99192.41;4356238;32;30749;-82
2023/02/26 11:33:15;;;;;;;0.00;0.00;;;;;;;8.89;41.57;99199.38;4364985;32;33501;-82
2023/02/26 11:36:00;;;;;;;0.00;0.00;;;;;;;8.87;42.71;99203.84;4316302;32;33529;-82
2023/02/26 11:38:28;;;;;;;0.03;0.03;;;;;;;8.94;41.99;99202.66;4344072;32;33052;-82
2023/02/26 11:40:57;;;;;;;0.60;0.20;;;;;;;8.38;43.72;99207.84;4363759;32;33521;-82
2023/02/26 11:43:27;;;;;;;0.00;0.00;;;;;;;8.67;43.67;99210.03;4377988;32;33731;-82
2023/02/26 11:45:57;;;;;;;0.25;0.25;;;;;;;9.18;42.70;99202.44;4389564;32;33888;-81
2023/02/26 11:48:32;;;;;;;0.00;0.00;;;;;;;8.21;44.19;99211.19;4365488;32;31927;-82
2023/02/26 11:51:01;;;;;;;0.00;0.00;;;;;;;8.47;44.09;99207.44;4298990;33;32734;-82
2023/02/26 11:53:41;;;;;;;0.47;0.47;;;;;;;8.17;45.48;99212.25;4362781;32;33683;-81
2023/02/26 11:56:14;;;;;;;0.00;0.00;;;;;;;8.88;44.07;99196.84;4364755;32;34080;-82
2023/02/26 11:58:44;;;;;;;0.00;0.00;;;;;;;8.75;44.31;99207.06;4372159;32;32272;-82
2023/02/26 12:01:13;;;;;;;0.52;0.52;;;;;;;8.61;44.56;99205.06;4324699;33;33057;-82
2023/02/26 12:03:45;;;;;;;0.00;0.00;;;;;;;8.78;44.23;99200.78;4320688;33;33980;-82
2023/02/26 12:06:21;;;;;;;0.00;0.00;;;;;;;8.46;45.38;99205.75;4377673;32;32327;-81